createdAt,value
2022-12-01T00:00:40.679Z,1024.03
2022-12-01T00:01:40.736Z,1024.01
2022-12-01T00:02:40.746Z,1023.97
2022-12-01T00:03:40.659Z,1024.01
2022-12-01T00:04:40.643Z,1024.03
2022-12-01T00:05:40.632Z,1024.02
2022-12-01T00:06:40.626Z,1024.03
2022-12-01T00:07:40.703Z,1024.04
2022-12-01T00:08:40.608Z,1023.99
2022-12-01T00:09:40.585Z,1023.95
2022-12-01T00:10:40.597Z,1024.00
2022-12-01T00:11:40.567Z,1023.98
2022-12-01T00:12:40.582Z,1023.96
2022-12-01T00:13:40.554Z,1023.95
2022-12-01T00:14:40.549Z,1023.98
2022-12-01T00:15:40.533Z,1024.00
2022-12-01T00:16:40.671Z,1024.00
2022-12-01T00:17:40.498Z,1023.93
2022-12-01T00:18:40.498Z,1023.96
2022-12-01T00:19:40.495Z,1024.00
2022-12-01T00:20:40.480Z,1024.01
2022-12-01T00:21:40.463Z,1024.03
2022-12-01T00:22:40.460Z,1024.07
2022-12-01T00:23:40.445Z,1024.06
2022-12-01T00:24:40.444Z,1024.02
2022-12-01T00:25:40.441Z,1024.02
2022-12-01T00:26:40.425Z,1023.99
2022-12-01T00:27:40.406Z,1024.02
2022-12-01T00:28:40.410Z,1024.00
2022-12-01T00:29:40.387Z,1023.97
2022-12-01T00:30:40.381Z,1023.92
2022-12-01T00:31:40.464Z,1023.98
2022-12-01T00:32:40.347Z,1024.01
2022-12-01T00:33:40.334Z,1024.00
2022-12-01T00:34:40.329Z,1023.99
2022-12-01T00:35:40.329Z,1024.02
2022-12-01T00:36:40.337Z,1023.97
2022-12-01T00:37:40.302Z,1024.02
2022-12-01T00:38:40.282Z,1023.95
2022-12-01T00:39:40.275Z,1024.00
2022-12-01T00:40:40.279Z,1023.99
2022-12-01T00:41:40.259Z,1024.02
2022-12-01T00:42:40.250Z,1024.00
2022-12-01T00:43:40.234Z,1024.00
2022-12-01T00:44:40.238Z,1024.04
2022-12-01T00:45:40.332Z,1024.00
2022-12-01T00:46:40.221Z,1023.99
2022-12-01T00:47:40.192Z,1024.01
2022-12-01T00:48:40.188Z,1024.00
2022-12-01T00:49:49.083Z,1023.96
2022-12-01T00:50:40.163Z,1023.99
2022-12-01T00:51:40.169Z,1024.01
2022-12-01T00:52:40.143Z,1024.03
2022-12-01T00:53:40.135Z,1024.00
2022-12-01T00:54:40.133Z,1024.01
2022-12-01T00:55:40.104Z,1023.99
2022-12-01T00:56:40.095Z,1023.99
2022-12-01T00:57:40.097Z,1024.00
2022-12-01T00:58:40.091Z,1024.03
2022-12-01T00:59:40.072Z,1024.03
2022-12-01T01:00:40.112Z,1024.03
2022-12-01T01:01:40.108Z,1024.05
2022-12-01T01:02:40.133Z,1024.08
2022-12-01T01:03:40.038Z,1024.09
2022-12-01T01:04:40.029Z,1024.16
2022-12-01T01:05:40.013Z,1024.13
2022-12-01T01:06:39.994Z,1024.11
2022-12-01T01:07:40.043Z,1024.08
2022-12-01T01:08:40.010Z,1024.19
2022-12-01T01:09:39.970Z,1024.12
2022-12-01T01:10:39.968Z,1024.17
2022-12-01T01:11:39.963Z,1024.19
2022-12-01T01:12:39.940Z,1024.15
2022-12-01T01:13:39.920Z,1024.18
2022-12-01T01:14:39.923Z,1024.15
2022-12-01T01:15:39.899Z,1024.15
2022-12-01T01:16:39.966Z,1024.14
2022-12-01T01:17:39.899Z,1024.15
2022-12-01T01:18:39.881Z,1024.13
2022-12-01T01:19:39.857Z,1024.14
2022-12-01T01:20:39.859Z,1024.15
2022-12-01T01:21:39.850Z,1024.11
2022-12-01T01:22:39.829Z,1024.16
2022-12-01T01:23:39.823Z,1024.18
2022-12-01T01:24:39.803Z,1024.13
2022-12-01T01:25:39.801Z,1024.07
2022-12-01T01:26:39.795Z,1024.11
2022-12-01T01:27:39.790Z,1024.09
2022-12-01T01:28:39.771Z,1024.04
2022-12-01T01:29:39.760Z,1024.08
2022-12-01T01:30:39.778Z,1024.14
2022-12-01T01:31:39.729Z,1024.06
2022-12-01T01:32:39.745Z,1024.09
2022-12-01T01:33:39.732Z,1024.09
2022-12-01T01:34:39.707Z,1024.13
2022-12-01T01:35:39.695Z,1024.14
2022-12-01T01:36:39.685Z,1024.09
2022-12-01T01:37:39.687Z,1024.15
2022-12-01T01:38:39.673Z,1024.08
2022-12-01T01:39:39.655Z,1024.08
2022-12-01T01:40:39.653Z,1024.12
2022-12-01T01:41:39.637Z,1024.11
2022-12-01T01:42:39.625Z,1024.07
2022-12-01T01:43:39.617Z,1024.05
2022-12-01T01:44:39.594Z,1024.03
2022-12-01T01:45:39.620Z,1024.05
2022-12-01T01:46:39.581Z,1024.04
2022-12-01T01:47:39.580Z,1024.01
2022-12-01T01:48:39.597Z,1024.00
2022-12-01T01:49:39.547Z,1024.02
2022-12-01T01:50:39.533Z,1024.03
2022-12-01T01:51:39.528Z,1024.03
2022-12-01T01:52:39.512Z,1024.03
2022-12-01T01:53:39.533Z,1024.10
2022-12-01T01:54:39.492Z,1024.05
2022-12-01T01:55:39.498Z,1024.03
2022-12-01T01:56:39.484Z,1024.01
2022-12-01T01:57:39.474Z,1024.03
2022-12-01T01:58:39.454Z,1024.03
2022-12-01T01:59:39.451Z,1024.07
2022-12-01T02:00:39.463Z,1024.00
2022-12-01T02:01:39.534Z,1023.99
2022-12-01T02:02:39.463Z,1023.93
2022-12-01T02:03:39.404Z,1023.95
2022-12-01T02:04:39.413Z,1023.95
2022-12-01T02:05:39.380Z,1023.97
2022-12-01T02:06:39.378Z,1023.97
2022-12-01T02:07:39.402Z,1023.96
2022-12-01T02:08:39.388Z,1023.98
2022-12-01T02:09:39.339Z,1024.00
2022-12-01T02:10:39.330Z,1024.06
2022-12-01T02:11:39.338Z,1024.00
2022-12-01T02:12:39.303Z,1024.01
2022-12-01T02:13:39.301Z,1024.02
2022-12-01T02:14:39.281Z,1023.94
2022-12-01T02:15:39.270Z,1024.01
2022-12-01T02:16:39.324Z,1023.99
2022-12-01T02:17:41.837Z,1023.91
2022-12-01T02:18:39.245Z,1023.96
2022-12-01T02:19:39.235Z,1023.91
2022-12-01T02:20:39.249Z,1023.91
2022-12-01T02:21:39.220Z,1023.91
2022-12-01T02:22:39.202Z,1023.93
2022-12-01T02:23:39.214Z,1023.95
2022-12-01T02:24:39.192Z,1023.95
2022-12-01T02:25:39.164Z,1023.97
2022-12-01T02:26:39.170Z,1023.93
2022-12-01T02:27:39.155Z,1024.00
2022-12-01T02:28:47.706Z,1023.92
2022-12-01T02:29:39.147Z,1023.88
2022-12-01T02:30:39.196Z,1023.89
2022-12-01T02:31:39.128Z,1023.88
2022-12-01T02:32:39.092Z,1023.87
2022-12-01T02:33:39.089Z,1023.91
2022-12-01T02:34:39.082Z,1023.87
2022-12-01T02:35:39.094Z,1023.83
2022-12-01T02:36:39.074Z,1023.91
2022-12-01T02:37:39.041Z,1023.85
2022-12-01T02:38:39.043Z,1023.84
2022-12-01T02:39:39.020Z,1023.88
2022-12-01T02:40:39.033Z,1023.90
2022-12-01T02:41:39.013Z,1023.89
2022-12-01T02:42:38.988Z,1023.84
2022-12-01T02:43:38.995Z,1023.84
2022-12-01T02:44:38.967Z,1023.85
2022-12-01T02:45:38.971Z,1023.83
2022-12-01T02:46:38.997Z,1023.87
2022-12-01T02:47:38.936Z,1023.86
2022-12-01T02:48:38.929Z,1023.88
2022-12-01T02:49:38.924Z,1023.86
2022-12-01T02:50:38.908Z,1023.87
2022-12-01T02:51:38.902Z,1023.86
2022-12-01T02:52:38.910Z,1023.89
2022-12-01T02:53:38.877Z,1023.92
2022-12-01T02:54:38.869Z,1023.93
2022-12-01T02:55:38.851Z,1023.88
2022-12-01T02:56:38.850Z,1023.88
2022-12-01T02:57:38.839Z,1023.91
2022-12-01T02:58:38.834Z,1023.93
2022-12-01T02:59:38.809Z,1023.88
2022-12-01T03:00:38.812Z,1023.86
2022-12-01T03:01:38.861Z,1023.84
2022-12-01T03:02:38.866Z,1023.87
2022-12-01T03:03:38.772Z,1023.87
2022-12-01T03:04:38.770Z,1023.98
2022-12-01T03:05:38.756Z,1023.94
2022-12-01T03:06:38.737Z,1023.93
2022-12-01T03:07:38.783Z,1023.89
2022-12-01T03:08:38.750Z,1023.90
2022-12-01T03:09:38.719Z,1023.91
2022-12-01T03:10:38.696Z,1023.86
2022-12-01T03:11:38.699Z,1023.88
2022-12-01T03:12:38.674Z,1023.84
2022-12-01T03:13:38.692Z,1023.87
2022-12-01T03:14:38.668Z,1023.88
2022-12-01T03:15:38.691Z,1023.79
2022-12-01T03:16:38.633Z,1023.85
2022-12-01T03:17:38.625Z,1023.86
2022-12-01T03:18:38.616Z,1023.85
2022-12-01T03:19:38.602Z,1023.84
2022-12-01T03:20:38.621Z,1023.80
2022-12-01T03:21:38.586Z,1023.83
2022-12-01T03:22:38.583Z,1023.83
2022-12-01T03:23:38.555Z,1023.87
2022-12-01T03:24:38.574Z,1023.82
2022-12-01T03:25:38.548Z,1023.85
2022-12-01T03:26:38.537Z,1023.83
2022-12-01T03:27:38.588Z,1023.78
2022-12-01T03:28:38.537Z,1023.84
2022-12-01T03:29:38.496Z,1023.80
2022-12-01T03:30:38.496Z,1023.84
2022-12-01T03:31:38.513Z,1023.84
2022-12-01T03:32:38.475Z,1023.82
2022-12-01T03:33:38.455Z,1023.82
2022-12-01T03:34:38.444Z,1023.82
2022-12-01T03:35:38.444Z,1023.83
2022-12-01T03:36:38.430Z,1023.88
2022-12-01T03:37:38.423Z,1023.92
2022-12-01T03:38:38.412Z,1023.97
2022-12-01T03:39:38.405Z,1023.94
2022-12-01T03:40:38.404Z,1023.95
2022-12-01T03:41:38.410Z,1023.90
2022-12-01T03:42:38.365Z,1023.95
2022-12-01T03:43:38.355Z,1024.03
2022-12-01T03:44:38.342Z,1023.92
2022-12-01T03:45:38.328Z,1023.96
2022-12-01T03:46:38.372Z,1024.09
2022-12-01T03:47:38.335Z,1023.96
2022-12-01T03:48:38.291Z,1023.99
2022-12-01T03:49:38.285Z,1024.01
2022-12-01T03:50:38.276Z,1024.02
2022-12-01T03:51:38.268Z,1023.99
2022-12-01T03:52:38.272Z,1024.03
2022-12-01T03:53:38.243Z,1024.01
2022-12-01T03:54:38.255Z,1024.02
2022-12-01T03:55:38.228Z,1024.03
2022-12-01T03:56:38.248Z,1024.03
2022-12-01T03:57:38.224Z,1024.03
2022-12-01T03:58:38.192Z,1024.05
2022-12-01T03:59:38.180Z,1024.00
2022-12-01T04:00:38.219Z,1024.02
2022-12-01T04:01:38.287Z,1024.01
2022-12-01T04:02:38.275Z,1024.12
2022-12-01T04:03:38.140Z,1024.12
2022-12-01T04:04:38.139Z,1024.06
2022-12-01T04:05:38.121Z,1024.06
2022-12-01T04:06:38.139Z,1024.05
2022-12-01T04:07:45.746Z,1024.11
2022-12-01T04:08:38.098Z,1024.02
2022-12-01T04:09:38.074Z,1024.04
2022-12-01T04:10:38.088Z,1023.99
2022-12-01T04:11:38.061Z,1023.94
2022-12-01T04:12:38.088Z,1024.00
2022-12-01T04:13:38.039Z,1024.04
2022-12-01T04:14:38.050Z,1024.00
2022-12-01T04:15:38.057Z,1024.00
2022-12-01T04:16:38.002Z,1024.02
2022-12-01T04:17:37.994Z,1023.95
2022-12-01T04:18:37.998Z,1023.98
2022-12-01T04:19:37.980Z,1024.00
2022-12-01T04:20:37.990Z,1024.01
2022-12-01T04:21:37.955Z,1024.01
2022-12-01T04:22:37.947Z,1024.01
2022-12-01T04:23:37.928Z,1024.00
2022-12-01T04:24:37.922Z,1024.05
2022-12-01T04:25:37.959Z,1024.01
2022-12-01T04:26:37.899Z,1023.97
2022-12-01T04:27:37.895Z,1024.01
2022-12-01T04:28:37.895Z,1024.01
2022-12-01T04:29:37.879Z,1023.99
2022-12-01T04:30:37.875Z,1024.06
2022-12-01T04:31:38.025Z,1024.03
2022-12-01T04:32:37.862Z,1024.02
2022-12-01T04:33:37.823Z,1024.09
2022-12-01T04:34:37.819Z,1024.10
2022-12-01T04:35:37.960Z,1024.11
2022-12-01T04:36:37.902Z,1024.12
2022-12-01T04:37:37.869Z,1024.19
2022-12-01T04:38:37.786Z,1024.22
2022-12-01T04:39:37.780Z,1024.16
2022-12-01T04:40:37.759Z,1024.15
2022-12-01T04:41:37.786Z,1024.12
2022-12-01T04:42:37.736Z,1024.17
2022-12-01T04:43:37.727Z,1024.19
2022-12-01T04:44:37.759Z,1024.13
2022-12-01T04:45:37.699Z,1024.16
2022-12-01T04:46:37.766Z,1024.14
2022-12-01T04:47:37.692Z,1024.16
2022-12-01T04:48:37.687Z,1024.21
2022-12-01T04:49:37.655Z,1024.13
2022-12-01T04:50:37.678Z,1024.16
2022-12-01T04:51:37.634Z,1024.19
2022-12-01T04:52:37.648Z,1024.15
2022-12-01T04:53:37.629Z,1024.17
2022-12-01T04:54:37.615Z,1024.18
2022-12-01T04:55:37.597Z,1024.16
2022-12-01T04:56:37.585Z,1024.17
2022-12-01T04:57:37.569Z,1024.14
2022-12-01T04:58:37.579Z,1024.15
2022-12-01T04:59:37.560Z,1024.08
2022-12-01T05:00:37.646Z,1024.15
2022-12-01T05:01:37.602Z,1024.12
2022-12-01T05:02:37.539Z,1024.15
2022-12-01T05:03:37.534Z,1024.13
2022-12-01T05:04:37.523Z,1024.13
2022-12-01T05:05:37.500Z,1024.13
2022-12-01T05:06:37.494Z,1024.10
2022-12-01T05:07:37.499Z,1024.13
2022-12-01T05:08:37.467Z,1024.13
2022-12-01T05:09:37.469Z,1024.09
2022-12-01T05:10:37.442Z,1024.17
2022-12-01T05:11:37.429Z,1024.11
2022-12-01T05:12:37.414Z,1024.13
2022-12-01T05:13:37.420Z,1024.18
2022-12-01T05:14:37.397Z,1024.11
2022-12-01T05:15:37.400Z,1024.12
2022-12-01T05:16:37.447Z,1024.16
2022-12-01T05:17:37.402Z,1024.13
2022-12-01T05:18:37.384Z,1024.19
2022-12-01T05:19:37.356Z,1024.17
2022-12-01T05:20:37.344Z,1024.19
2022-12-01T05:21:37.323Z,1024.20
2022-12-01T05:23:04.464Z,1024.15
2022-12-01T05:23:38.303Z,1024.21
2022-12-01T05:24:37.300Z,1024.26
2022-12-01T05:25:37.309Z,1024.29
2022-12-01T05:26:37.297Z,1024.25
2022-12-01T05:27:37.255Z,1024.27
2022-12-01T05:28:37.267Z,1024.29
2022-12-01T05:29:37.235Z,1024.33
2022-12-01T05:30:37.232Z,1024.28
2022-12-01T05:31:37.299Z,1024.26
2022-12-01T05:32:37.236Z,1024.31
2022-12-01T05:33:37.196Z,1024.31
2022-12-01T05:34:37.190Z,1024.40
2022-12-01T05:35:37.185Z,1024.31
2022-12-01T05:36:37.166Z,1024.28
2022-12-01T05:37:37.169Z,1024.40
2022-12-01T05:38:37.160Z,1024.33
2022-12-01T05:39:37.146Z,1024.32
2022-12-01T05:40:37.122Z,1024.31
2022-12-01T05:41:37.132Z,1024.26
2022-12-01T05:42:37.105Z,1024.32
2022-12-01T05:43:37.089Z,1024.35
2022-12-01T05:44:37.097Z,1024.30
2022-12-01T05:45:37.134Z,1024.37
2022-12-01T05:46:44.595Z,1024.34
2022-12-01T05:47:37.047Z,1024.32
2022-12-01T05:48:37.058Z,1024.33
2022-12-01T05:49:37.039Z,1024.29
2022-12-01T05:50:37.020Z,1024.31
2022-12-01T05:51:37.030Z,1024.36
2022-12-01T05:52:37.000Z,1024.30
2022-12-01T05:53:36.987Z,1024.32
2022-12-01T05:54:37.010Z,1024.32
2022-12-01T05:55:36.977Z,1024.35
2022-12-01T05:56:36.961Z,1024.39
2022-12-01T05:57:36.954Z,1024.35
2022-12-01T05:58:36.933Z,1024.37
2022-12-01T05:59:36.930Z,1024.40
2022-12-01T06:00:42.268Z,1024.47
2022-12-01T06:01:37.953Z,1024.47
2022-12-01T06:02:36.901Z,1024.47
2022-12-01T06:03:36.888Z,1024.49
2022-12-01T06:04:36.906Z,1024.49
2022-12-01T06:05:36.881Z,1024.46
2022-12-01T06:06:36.869Z,1024.43
2022-12-01T06:07:36.912Z,1024.51
2022-12-01T06:08:36.833Z,1024.48
2022-12-01T06:09:36.813Z,1024.44
2022-12-01T06:10:36.822Z,1024.41
2022-12-01T06:11:36.804Z,1024.42
2022-12-01T06:12:36.980Z,1024.44
2022-12-01T06:13:36.783Z,1024.45
2022-12-01T06:14:36.767Z,1024.47
2022-12-01T06:15:36.767Z,1024.47
2022-12-01T06:16:36.829Z,1024.41
2022-12-01T06:17:40.220Z,1024.45
2022-12-01T06:18:36.727Z,1024.46
2022-12-01T06:19:36.728Z,1024.41
2022-12-01T06:20:36.722Z,1024.44
2022-12-01T06:21:36.689Z,1024.49
2022-12-01T06:22:36.711Z,1024.45
2022-12-01T06:23:36.689Z,1024.46
2022-12-01T06:24:36.669Z,1024.46
2022-12-01T06:25:36.669Z,1024.54
2022-12-01T06:26:36.650Z,1024.53
2022-12-01T06:27:36.656Z,1024.48
2022-12-01T06:28:36.628Z,1024.49
2022-12-01T06:29:47.839Z,1024.61
2022-12-01T06:30:37.612Z,1024.57
2022-12-01T06:31:36.663Z,1024.62
2022-12-01T06:32:36.662Z,1024.55
2022-12-01T06:33:36.589Z,1024.60
2022-12-01T06:34:36.564Z,1024.62
2022-12-01T06:35:36.561Z,1024.65
2022-12-01T06:36:36.558Z,1024.61
2022-12-01T06:37:36.531Z,1024.62
2022-12-01T06:38:36.528Z,1024.66
2022-12-01T06:39:36.516Z,1024.69
2022-12-01T06:40:36.518Z,1024.70
2022-12-01T06:41:36.499Z,1024.69
2022-12-01T06:42:36.483Z,1024.65
2022-12-01T06:43:36.468Z,1024.66
2022-12-01T06:44:36.460Z,1024.63
2022-12-01T06:45:36.525Z,1024.68
2022-12-01T06:46:36.522Z,1024.65
2022-12-01T06:47:36.427Z,1024.67
2022-12-01T06:48:36.429Z,1024.62
2022-12-01T06:49:36.427Z,1024.64
2022-12-01T06:50:36.401Z,1024.63
2022-12-01T06:51:36.380Z,1024.56
2022-12-01T06:52:36.391Z,1024.58
2022-12-01T06:53:36.359Z,1024.66
2022-12-01T06:54:36.375Z,1024.61
2022-12-01T06:55:36.354Z,1024.65
2022-12-01T06:56:36.320Z,1024.65
2022-12-01T06:57:36.341Z,1024.66
2022-12-01T06:58:36.308Z,1024.68
2022-12-01T06:59:36.298Z,1024.63
2022-12-01T07:00:36.301Z,1024.77
2022-12-01T07:01:36.335Z,1024.73
2022-12-01T07:02:36.319Z,1024.73
2022-12-01T07:03:36.272Z,1024.75
2022-12-01T07:04:36.262Z,1024.74
2022-12-01T07:05:36.237Z,1024.79
2022-12-01T07:06:36.232Z,1024.73
2022-12-01T07:07:36.245Z,1024.76
2022-12-01T07:08:36.234Z,1024.80
2022-12-01T07:09:36.224Z,1024.84
2022-12-01T07:10:36.198Z,1024.85
2022-12-01T07:11:36.181Z,1024.85
2022-12-01T07:12:36.160Z,1024.84
2022-12-01T07:13:36.157Z,1024.84
2022-12-01T07:14:36.148Z,1024.89
2022-12-01T07:15:36.134Z,1024.86
2022-12-01T07:16:36.234Z,1024.89
2022-12-01T07:17:36.113Z,1024.91
2022-12-01T07:18:36.092Z,1024.95
2022-12-01T07:19:36.089Z,1024.87
2022-12-01T07:20:36.082Z,1024.89
2022-12-01T07:21:36.076Z,1024.93
2022-12-01T07:22:36.069Z,1024.94
2022-12-01T07:23:36.049Z,1024.93
2022-12-01T07:24:36.049Z,1024.90
2022-12-01T07:25:43.599Z,1024.96
2022-12-01T07:26:45.918Z,1024.91
2022-12-01T07:27:36.019Z,1024.96
2022-12-01T07:28:36.005Z,1024.90
2022-12-01T07:29:36.014Z,1024.86
2022-12-01T07:30:36.079Z,1024.91
2022-12-01T07:31:35.977Z,1024.89
2022-12-01T07:32:35.971Z,1024.89
2022-12-01T07:33:35.941Z,1024.89
2022-12-01T07:34:35.936Z,1024.91
2022-12-01T07:35:35.924Z,1024.90
2022-12-01T07:36:35.906Z,1024.83
2022-12-01T07:37:35.923Z,1024.91
2022-12-01T07:38:35.900Z,1024.88
2022-12-01T07:39:35.884Z,1024.87
2022-12-01T07:40:35.887Z,1024.80
2022-12-01T07:41:35.888Z,1024.83
2022-12-01T07:42:35.862Z,1024.84
2022-12-01T07:43:35.865Z,1024.75
2022-12-01T07:44:35.865Z,1024.86
2022-12-01T07:45:35.812Z,1024.88
2022-12-01T07:46:35.832Z,1024.77
2022-12-01T07:47:35.807Z,1024.77
2022-12-01T07:48:35.785Z,1024.85
2022-12-01T07:49:35.779Z,1024.79
2022-12-01T07:50:35.781Z,1024.81
2022-12-01T07:51:35.752Z,1024.86
2022-12-01T07:52:35.755Z,1024.79
2022-12-01T07:53:35.756Z,1024.83
2022-12-01T07:54:35.716Z,1024.83
2022-12-01T07:55:35.721Z,1024.79
2022-12-01T07:56:35.719Z,1024.85
2022-12-01T07:57:35.696Z,1024.88
2022-12-01T07:58:35.705Z,1024.84
2022-12-01T07:59:35.699Z,1024.87
2022-12-01T08:00:35.657Z,1024.86
2022-12-01T08:01:38.276Z,1024.86
2022-12-01T08:02:35.674Z,1024.92
2022-12-01T08:03:35.623Z,1024.95
2022-12-01T08:04:35.621Z,1024.89
2022-12-01T08:05:35.623Z,1024.91
2022-12-01T08:06:35.595Z,1024.90
2022-12-01T08:07:35.618Z,1024.95
2022-12-01T08:08:35.592Z,1024.97
2022-12-01T08:09:35.585Z,1024.96
2022-12-01T08:10:35.604Z,1024.99
2022-12-01T08:11:35.545Z,1024.97
2022-12-01T08:12:35.555Z,1024.98
2022-12-01T08:13:43.424Z,1025.00
2022-12-01T08:14:35.547Z,1024.98
2022-12-01T08:15:45.528Z,1025.01
2022-12-01T08:16:43.049Z,1025.01
2022-12-01T08:17:35.523Z,1025.03
2022-12-01T08:18:35.497Z,1025.02
2022-12-01T08:19:35.467Z,1025.01
2022-12-01T08:20:35.468Z,1025.00
2022-12-01T08:21:35.447Z,1025.05
2022-12-01T08:22:35.431Z,1025.08
2022-12-01T08:23:35.422Z,1025.06
2022-12-01T08:24:35.401Z,1025.00
2022-12-01T08:25:35.395Z,1025.06
2022-12-01T08:26:35.386Z,1025.06
2022-12-01T08:27:35.398Z,1024.99
2022-12-01T08:28:35.419Z,1025.04
2022-12-01T08:29:35.365Z,1025.05
2022-12-01T08:30:35.341Z,1025.05
2022-12-01T08:31:35.354Z,1025.09
2022-12-01T08:32:35.327Z,1025.14
2022-12-01T08:33:35.315Z,1025.10
2022-12-01T08:34:35.304Z,1025.07
2022-12-01T08:35:35.312Z,1025.04
2022-12-01T08:36:35.275Z,1025.04
2022-12-01T08:37:35.294Z,1024.99
2022-12-01T08:38:35.263Z,1025.03
2022-12-01T08:39:35.246Z,1025.08
2022-12-01T08:40:35.232Z,1025.15
2022-12-01T08:41:35.241Z,1025.11
2022-12-01T08:42:35.246Z,1025.08
2022-12-01T08:43:56.769Z,1025.08
2022-12-01T08:44:36.249Z,1025.14
2022-12-01T08:45:35.190Z,1025.18
2022-12-01T08:46:35.258Z,1025.15
2022-12-01T08:47:35.185Z,1025.15
2022-12-01T08:48:35.175Z,1025.12
2022-12-01T08:49:35.149Z,1025.19
2022-12-01T08:50:35.133Z,1025.15
2022-12-01T08:51:35.118Z,1025.16
2022-12-01T08:52:35.122Z,1025.13
2022-12-01T08:53:35.104Z,1025.08
2022-12-01T08:54:35.105Z,1025.08
2022-12-01T08:55:35.103Z,1025.06
2022-12-01T08:56:35.075Z,1025.11
2022-12-01T08:57:35.073Z,1025.17
2022-12-01T08:58:35.077Z,1025.13
2022-12-01T08:59:35.041Z,1025.16
2022-12-01T09:00:35.058Z,1025.17
2022-12-01T09:01:35.069Z,1025.19
2022-12-01T09:02:35.206Z,1025.22
2022-12-01T09:03:35.036Z,1025.21
2022-12-01T09:04:34.997Z,1025.21
2022-12-01T09:05:43.537Z,1025.26
2022-12-01T09:06:42.524Z,1025.18
2022-12-01T09:07:35.005Z,1025.23
2022-12-01T09:08:34.959Z,1025.26
2022-12-01T09:09:34.987Z,1025.26
2022-12-01T09:10:34.929Z,1025.29
2022-12-01T09:11:34.913Z,1025.33
2022-12-01T09:12:34.906Z,1025.26
2022-12-01T09:13:34.892Z,1025.24
2022-12-01T09:14:34.920Z,1025.35
2022-12-01T09:15:34.883Z,1025.28
2022-12-01T09:16:34.980Z,1025.31
2022-12-01T09:17:34.857Z,1025.26
2022-12-01T09:18:34.848Z,1025.26
2022-12-01T09:19:34.842Z,1025.24
2022-12-01T09:20:34.827Z,1025.26
2022-12-01T09:21:34.813Z,1025.26
2022-12-01T09:22:34.816Z,1025.26
2022-12-01T09:23:34.792Z,1025.17
2022-12-01T09:24:34.770Z,1025.26
2022-12-01T09:25:34.777Z,1025.20
2022-12-01T09:26:34.752Z,1025.23
2022-12-01T09:27:34.747Z,1025.16
2022-12-01T09:28:34.754Z,1025.16
2022-12-01T09:29:34.734Z,1025.18
2022-12-01T09:30:34.706Z,1025.22
2022-12-01T09:31:34.876Z,1025.22
2022-12-01T09:32:34.716Z,1025.15
2022-12-01T09:33:34.719Z,1025.07
2022-12-01T09:34:34.684Z,1025.05
2022-12-01T09:35:34.669Z,1025.08
2022-12-01T09:36:34.650Z,1025.10
2022-12-01T09:37:34.639Z,1025.10
2022-12-01T09:38:34.626Z,1025.06
2022-12-01T09:39:34.650Z,1025.10
2022-12-01T09:40:34.618Z,1025.09
2022-12-01T09:41:34.601Z,1025.08
2022-12-01T09:42:35.646Z,1025.04
2022-12-01T09:43:34.592Z,1025.02
2022-12-01T09:44:34.589Z,1025.03
2022-12-01T09:45:34.569Z,1025.06
2022-12-01T09:46:34.633Z,1025.04
2022-12-01T09:47:34.545Z,1025.07
2022-12-01T09:48:34.567Z,1025.01
2022-12-01T09:49:34.516Z,1024.98
2022-12-01T09:50:34.518Z,1024.98
2022-12-01T09:51:34.488Z,1025.00
2022-12-01T09:52:34.505Z,1025.03
2022-12-01T09:53:34.498Z,1024.96
2022-12-01T09:54:34.488Z,1024.96
2022-12-01T09:55:34.471Z,1024.94
2022-12-01T09:56:34.444Z,1024.95
2022-12-01T09:57:34.434Z,1025.00
2022-12-01T09:58:34.432Z,1024.98
2022-12-01T09:59:34.410Z,1024.99
2022-12-01T10:00:34.488Z,1024.99
2022-12-01T10:01:34.472Z,1025.01
2022-12-01T10:02:34.449Z,1024.96
2022-12-01T10:03:34.374Z,1024.99
2022-12-01T10:04:34.376Z,1025.00
2022-12-01T10:05:34.384Z,1025.00
2022-12-01T10:06:34.399Z,1024.91
2022-12-01T10:07:34.451Z,1024.95
2022-12-01T10:08:34.313Z,1024.96
2022-12-01T10:09:34.332Z,1024.98
2022-12-01T10:10:34.312Z,1024.97
2022-12-01T10:11:34.302Z,1024.98
2022-12-01T10:12:34.270Z,1025.00
2022-12-01T10:13:34.261Z,1024.95
2022-12-01T10:14:34.262Z,1024.95
2022-12-01T10:15:34.236Z,1024.85
2022-12-01T10:16:34.284Z,1024.85
2022-12-01T10:17:34.223Z,1024.90
2022-12-01T10:18:34.206Z,1024.89
2022-12-01T10:19:34.194Z,1024.92
2022-12-01T10:20:34.213Z,1024.89
2022-12-01T10:21:34.187Z,1024.85
2022-12-01T10:22:34.198Z,1024.89
2022-12-01T10:23:34.160Z,1024.85
2022-12-01T10:24:34.152Z,1024.86
2022-12-01T10:25:34.139Z,1024.87
2022-12-01T10:26:34.121Z,1024.82
2022-12-01T10:27:34.150Z,1024.81
2022-12-01T10:28:34.103Z,1024.81
2022-12-01T10:29:34.089Z,1024.81
2022-12-01T10:30:34.074Z,1024.80
2022-12-01T10:31:34.126Z,1024.77
2022-12-01T10:32:34.060Z,1024.78
2022-12-01T10:33:34.062Z,1024.75
2022-12-01T10:34:34.052Z,1024.80
2022-12-01T10:35:34.041Z,1024.78
2022-12-01T10:36:34.030Z,1024.81
2022-12-01T10:37:34.037Z,1024.78
2022-12-01T10:38:43.579Z,1024.77
2022-12-01T10:39:33.991Z,1024.77
2022-12-01T10:40:34.003Z,1024.79
2022-12-01T10:41:33.966Z,1024.77
2022-12-01T10:42:33.979Z,1024.78
2022-12-01T10:43:33.993Z,1024.69
2022-12-01T10:44:33.963Z,1024.70
2022-12-01T10:45:33.997Z,1024.69
2022-12-01T10:46:33.918Z,1024.68
2022-12-01T10:47:33.911Z,1024.66
2022-12-01T10:48:33.892Z,1024.58
2022-12-01T10:49:33.904Z,1024.67
2022-12-01T10:50:33.870Z,1024.65
2022-12-01T10:51:33.866Z,1024.65
2022-12-01T10:52:33.860Z,1024.64
2022-12-01T10:53:33.842Z,1024.64
2022-12-01T10:54:33.837Z,1024.65
2022-12-01T10:55:33.844Z,1024.62
2022-12-01T10:56:33.820Z,1024.66
2022-12-01T10:57:33.797Z,1024.69
2022-12-01T10:58:33.787Z,1024.66
2022-12-01T10:59:33.794Z,1024.71
2022-12-01T11:00:58.620Z,1024.67
2022-12-01T11:01:34.929Z,1024.74
2022-12-01T11:02:41.847Z,1024.67
2022-12-01T11:03:34.081Z,1024.71
2022-12-01T11:04:41.571Z,1024.69
2022-12-01T11:05:33.732Z,1024.66
2022-12-01T11:06:33.725Z,1024.68
2022-12-01T11:07:33.742Z,1024.70
2022-12-01T11:08:33.701Z,1024.77
2022-12-01T11:09:33.673Z,1024.75
2022-12-01T11:10:33.678Z,1024.72
2022-12-01T11:11:33.670Z,1024.74
2022-12-01T11:12:33.644Z,1024.67
2022-12-01T11:13:33.634Z,1024.71
2022-12-01T11:14:33.632Z,1024.71
2022-12-01T11:15:33.609Z,1024.68
2022-12-01T11:16:33.668Z,1024.76
2022-12-01T11:17:33.587Z,1024.72
2022-12-01T11:18:33.714Z,1024.70
2022-12-01T11:19:33.608Z,1024.70
2022-12-01T11:20:33.697Z,1024.68
2022-12-01T11:21:33.556Z,1024.68
2022-12-01T11:22:33.536Z,1024.71
2022-12-01T11:23:33.521Z,1024.70
2022-12-01T11:24:33.563Z,1024.64
2022-12-01T11:25:33.531Z,1024.65
2022-12-01T11:26:33.518Z,1024.67
2022-12-01T11:27:33.479Z,1024.62
2022-12-01T11:28:33.487Z,1024.62
2022-12-01T11:29:33.462Z,1024.66
2022-12-01T11:30:33.454Z,1024.62
2022-12-01T11:31:33.527Z,1024.63
2022-12-01T11:32:33.430Z,1024.62
2022-12-01T11:33:33.463Z,1024.65
2022-12-01T11:34:33.408Z,1024.58
2022-12-01T11:35:33.397Z,1024.61
2022-12-01T11:36:33.383Z,1024.65
2022-12-01T11:37:33.413Z,1024.67
2022-12-01T11:38:33.354Z,1024.67
2022-12-01T11:39:33.360Z,1024.67
2022-12-01T11:40:33.357Z,1024.63
2022-12-01T11:41:33.329Z,1024.65
2022-12-01T11:42:33.322Z,1024.63
2022-12-01T11:43:33.310Z,1024.61
2022-12-01T11:45:34.300Z,1024.68
2022-12-01T11:46:33.290Z,1024.64
2022-12-01T11:47:33.268Z,1024.59
2022-12-01T11:48:33.269Z,1024.66
2022-12-01T11:49:33.266Z,1024.59
2022-12-01T11:50:33.400Z,1024.63
2022-12-01T11:51:33.224Z,1024.63
2022-12-01T11:52:33.242Z,1024.65
2022-12-01T11:53:33.214Z,1024.59
2022-12-01T11:54:33.191Z,1024.55
2022-12-01T11:55:33.222Z,1024.59
2022-12-01T11:56:33.189Z,1024.61
2022-12-01T11:57:34.871Z,1024.66
2022-12-01T11:58:33.191Z,1024.65
2022-12-01T11:59:33.156Z,1024.66
2022-12-01T12:00:33.169Z,1024.66
2022-12-01T12:01:33.135Z,1024.65
2022-12-01T12:02:33.152Z,1024.66
2022-12-01T12:03:33.170Z,1024.67
2022-12-01T12:04:33.096Z,1024.67
2022-12-01T12:05:33.104Z,1024.68
2022-12-01T12:07:34.138Z,1024.73